Legenda:
Basso (0-210)
Molto Alto (490 - 630)

Moderato (210 - 350)
Estremo (630 - 800)

Alto (350 - 490)
Molto estremo (800+)


 
387.89
Date Temp. (°C) Wind Speed (km/h) Rain (mm) RH Days Since Rain pwsFWI
La previsione è attiva (incluso oggi!), I valori sono sopra la linea rossa.
04/11/20 20.00 12.00 0.00 0.66 9 129.88
03/11/20 20.00 10.00 0.00 0.78 8 205.71
02/11/20 21.00 10.00 0.00 0.58 7 238.77
01/11/20 20.00 10.00 0.00 0.73 6 321.04
31/10/20 20.00 10.00 0.00 0.67 5 357.95
30/10/20 22.30 17.30 0.00 0.54 4 387.89
29/10/20 23.80 28.10 0.00 0.42 3 368.36
28/10/20 20.20 18.40 0.00 0.49 2 369.83
27/10/20 21.10 33.10 0.00 0.37 1 357.01
26/10/20 22.20 22.00 0.30 0.57 0 278.19
25/10/20 22.10 19.40 0.00 0.55 2 273.42
24/10/20 19.10 12.20 0.00 0.55 1 271.68
24/10/20 24.40 25.60 0.60 0.37 0 268.12
23/10/20 22.60 22.00 0.00 0.73 9 205.55
22/10/20 22.40 25.60 0.00 0.81 8 255.45
21/10/20 22.20 25.60 0.00 0.68 7 304.14
20/10/20 20.70 23.40 0.00 0.60 6 344.45
19/10/20 19.50 13.30 0.00 0.64 5 212.81
18/10/20 19.50 14.80 0.00 0.60 4 259.93
17/10/20 21.60 27.00 0.00 0.40 3 232.16
16/10/20 19.50 31.70 0.00 0.47 2 254.05
15/10/20 19.10 37.80 0.00 0.49 1 309.65
14/10/20 21.20 37.80 5.70 0.54 0 289.02
13/10/20 20.40 25.60 0.00 0.43 1 334.31
12/10/20 17.10 23.40 3.60 0.54 0 422.54
11/10/20 21.70 33.10 0.00 0.38 6 514.40
10/10/20 22.90 15.80 0.00 0.46 5 468.69
09/10/20 22.90 13.30 0.00 0.51 4 502.13
08/10/20 24.00 20.90 0.00 0.41 3 571.53
07/10/20 25.50 34.20 0.00 0.38 2 571.17
CumulusUtils Version 2.1.7 © Hans Rottier
Science background here. - NOTE: Behavioural testing still under way!
Prediction courtesy of https://www.yourweather.co.uk/